• Join FlightAware (Why Join?)
  • Login
  • US Flag GB Flag 
09:53 EDT


 

Airport Tracker/Info


-or-


 

Live Flight TrackerFlight Track Log ✈ SKW6440 ✈ 02-May-2013 ✈ KDEN - KMSP

Flight Track Log - Related Links

Times and Time Zones

All times are in EDT time to prevent confusion due to time zone crossing. See the SKW6440 flight status page for this flight to view local times or setup timezone preferences in your user account.

Time Position Orientation Groundspeed Altitude Reporting Facility
EDT Latitude Longitude Course Direction KTS MPH feet Rate Location/Type
18:44 39.9333 -104.6667 27° Northeast 205 236 7,400  Level Denver TRACON
18:45 39.9833 -104.6333 27° Northeast 235 270 9,600 1,980 Climbing Denver TRACON
18:46 40.0622 -104.3789 323° Northwest  Level FlightAware Approximate
18:46 40.0689 -104.5717 29° Northeast 282 325 11,800  Level Denver Center
18:47 40.1614 -104.4780 323° Northwest  Level FlightAware Approximate
18:47 40.1444 -104.5214 27° Northeast 303 349 14,600  Level Denver Center
18:48 40.2805 -104.5000 North  Level FlightAware Approximate
18:48 40.2231 -104.4689 27° Northeast 289 333 18,000  Level Denver Center
18:49 40.3785 -104.4088 27° Northeast  Level FlightAware Approximate
18:49 40.2975 -104.4236 25° Northeast 294 338 19,600  Level Denver Center
18:50 40.3758 -104.3683 28° Northeast 300 345 21,800 1,800 Climbing Denver Center
18:51 40.4542 -104.3186 26° Northeast 313 360 23,400 1,500 Climbing Denver Center
18:52 40.5281 -104.2661 28° Northeast 315 362 25,000 1,440 Climbing Denver Center
18:53 40.6100 -104.2103 27° Northeast 327 376 26,400 1,140 Climbing Denver Center
18:54 40.6803 -104.1631 27° Northeast 336 387 27,400 1,260 Climbing Denver Center
18:55 40.7825 -104.0553 39° Northeast 347 399 29,100 1,200 Climbing Denver Center
18:56 40.8617 -103.9708 39° Northeast 361 415 30,000 900 Climbing Denver Center
18:58 40.9358 -103.8664 47° Northeast 388 447 31,000 1,080 Climbing Denver Center
18:59 41.0125 -103.7525 48° Northeast 385 443 32,300 960 Climbing Denver Center
19:00 41.0817 -103.6497 48° Northeast 388 447 33,100 780 Climbing Denver Center
19:01 41.1633 -103.5258 49° Northeast 400 460 34,000 720 Climbing Denver Center
19:02 41.2342 -103.4197 48° Northeast 402 463 34,700 900 Climbing Denver Center
19:03 41.3178 -103.2944 48° Northeast 405 466 35,900 840 Climbing Denver Center
19:04 41.3761 -103.2058 49° Northeast 401 461 36,500 480 Climbing Denver Center
19:05 41.4544 -103.0425 57° Northeast 414 476 37,000 240 Climbing Denver Center
19:06 41.5094 -102.9128 60° Northeast 420 483 37,000  Level Denver Center
19:07 41.5672 -102.7828 59° Northeast 425 489 37,000  Level Denver Center
19:08 41.6311 -102.6325 60° Northeast 418 481 37,000  Level Denver Center
19:09 41.6911 -102.4925 60° Northeast 418 481 37,000  Level Denver Center
19:10 41.7511 -102.3508 60° Northeast 421 484 37,000  Level Denver Center
19:11 41.8122 -102.2075 60° Northeast 426 490 37,000  Level Denver Center
19:12 41.8697 -102.0736 60° Northeast 429 494 37,000  Level Denver Center
19:13 41.9356 -101.9172 60° Northeast 431 496 37,000  Level Denver Center
19:14 41.9928 -101.7800 61° Northeast 438 504 37,000  Level Denver Center
19:15 42.0411 -101.6653 60° Northeast 440 506 37,000  Level Denver Center
19:16 42.1083 -101.5022 61° Northeast 447 514 37,000  Level Denver Center
19:17 42.1844 -101.3164 61° Northeast 444 511 37,000  Level Denver Center
19:18 42.2408 -101.1781 61° Northeast 441 507 37,000  Level Denver Center
19:19 42.2969 -101.0414 61° Northeast 436 502 37,000  Level Denver Center
19:20 42.3625 -100.8794 61° Northeast 441 507 37,000  Level Denver Center
19:21 42.4200 -100.7372 61° Northeast 448 516 37,000  Level Denver Center
19:22 42.4864 -100.5708 62° Northeast 450 518 37,000  Level Denver Center
19:23 42.5431 -100.4281 62° Northeast 451 519 37,000  Level Denver Center
19:24 42.6106 -100.2614 61° Northeast 451 519 37,000  Level Denver Center
19:25 42.6675 -100.1158 62° Northeast 455 524 37,000  Level Denver Center
19:26 42.7250 -99.9656 62° Northeast 458 527 37,000  Level Denver Center
19:27 42.7958 -99.7844 62° Northeast 455 524 37,000  Level Denver Center
19:29 42.8556 -99.6347 61° Northeast 453 521 37,000  Level Denver Center
19:30 42.9269 -99.4503 62° Northeast 459 528 37,000  Level Denver Center
19:31 42.9853 -99.2961 63° Northeast 458 527 37,000  Level Denver Center
19:32 43.0578 -99.1103 62° Northeast 453 521 37,000  Level Minneapolis Center
19:33 43.1100 -98.9697 63° Northeast 456 525 37,000  Level Minneapolis Center
19:34 43.1678 -98.8164 63° Northeast 454 522 37,000  Level Minneapolis Center
19:35 43.2244 -98.6625 63° Northeast 454 522 37,000  Level Minneapolis Center
19:36 43.2947 -98.4775 62° Northeast 457 526 37,000  Level Minneapolis Center
19:37 43.3531 -98.3225 63° Northeast 459 528 37,000  Level Minneapolis Center
19:38 43.4103 -98.1650 63° Northeast 461 531 37,000  Level Minneapolis Center
19:39 43.4697 -98.0056 63° Northeast 468 539 37,000  Level Minneapolis Center
19:40 43.5278 -97.8439 64° Northeast 471 542 37,000  Level Minneapolis Center
19:41 43.5858 -97.6803 64° Northeast 476 548 37,000  Level Minneapolis Center
19:42 43.6458 -97.5183 63° Northeast 476 548 37,000  Level Minneapolis Center
19:43 43.7147 -97.3239 64° Northeast 472 543 37,000  Level Minneapolis Center
19:44 43.7728 -97.1622 64° Northeast 471 542 37,000  Level Minneapolis Center
19:45 43.8294 -97.0017 64° Northeast 466 536 37,000  Level Minneapolis Center
19:46 43.8858 -96.8403 64° Northeast 466 536 37,000  Level Minneapolis Center
19:47 43.9428 -96.6803 64° Northeast 465 535 37,000  Level Minneapolis Center
19:48 43.9989 -96.5175 64° Northeast 468 539 37,000  Level Minneapolis Center
19:49 44.0656 -96.3219 65° Northeast 472 543 37,000  Level Minneapolis Center
19:50 44.1228 -96.1519 65° Northeast 476 548 37,000 -120 Level Minneapolis Center
19:51 44.1772 -96.0011 63° Northeast 479 551 36,800 -1,380 Descending Minneapolis Center
19:53 44.2342 -95.8297 65° Northeast 489 563 34,200 -2,520 Descending Minneapolis Center
19:54 44.3053 -95.6231 64° Northeast 495 570 31,200 -2,700 Descending Minneapolis Center
19:55 44.3739 -95.4153 65° Northeast 493 567 28,100 -2,880 Descending Minneapolis Center
19:56 44.4317 -95.2369 66° East 502 578 25,300 -2,700 Descending Minneapolis Center
19:57 44.4847 -95.0564 68° East 504 580 22,600 -2,580 Descending Minneapolis Center
19:58 44.5281 -94.8775 71° East 492 566 20,000 -2,220 Descending Minneapolis Center
19:59 44.5578 -94.7419 73° East 470 541 18,100 -2,160 Descending Minneapolis Center
20:00 44.6058 -94.5389 72° East 428 493 15,600 -2,340 Descending Minneapolis Center
20:01 44.6389 -94.3931 72° East 396 456 13,300 -1,920 Descending Minneapolis Center
20:02 44.6703 -94.2553 72° East 374 430 11,700 -1,140 Descending Minneapolis Center
20:03 44.7019 -94.1167 72° East 373 429 11,000 -360 Descending Minneapolis Center
20:04 44.7383 -93.9550 72° East 363 418 11,000  Level Minneapolis Center
20:05 44.7681 -93.8242 72° East 352 405 11,000  Level Minneapolis Center
20:06 44.8017 -93.6703 73° East 345 397 11,000 -300 Level Minneapolis Center
20:07 44.8264 -93.5594 73° East 289 333 10,400 -1,200 Descending Minneapolis Center
20:08 44.8492 -93.4567 73° East 274 315 8,600 -1,200 Descending Minneapolis Center
20:09 44.8425 -93.3611 96° East 256 295 8,000 -1,020 Descending Minneapolis Center
20:10 44.8078 -93.2772 120° Southeast 248 285 6,600 -1,200 Descending Minneapolis Center
20:11 44.7781 -93.2044 120° Southeast 208 239 5,600 -1,080 Descending Minneapolis Center
20:12 44.7700 -93.1319 99° East 186 214 4,400 -1,260 Descending Minneapolis Center
20:14 44.8067 -93.0836 43° Northeast 152 175 3,100 -960 Descending Minneapolis Center
20:15 44.8386 -93.0975 343° North 127 146 2,500 -660 Descending Minneapolis Center
20:16 44.8572 -93.1392 302° West 125 144 1,800 -720 Descending Minneapolis Center
20:17 44.8758 -93.1811 302° West 129 148 1,100 -720 Descending Minneapolis Center